<?xml version="1.0" encoding="UTF-8" standalone="no" ?>
<gpx xmlns="http://www.topografix.com/GPX/1/1" xmlns:xsi="http://www.w3.org/2001/XMLSchema-instance" xsi:schemaLocation="http://www.topografix.com/GPX/1/1 http://www.topografix.com/GPX/1/1/gpx.xsd" version="1.1" creator="VisuGPX - https://www.visugpx.com">
  <metadata>
    <name>Virieu sur bourbe</name>
    <desc><![CDATA[Balade à faire c e printemps. par une belle journée]]></desc>
  </metadata>
  <trk>
    <name><![CDATA[20180430160745-SUM3e]]></name>
    <trkseg>
      <trkpt lat="45.48399" lon="5.47425">
        <ele>411</ele>
        <time>2016-03-01T08:18:28 01:00</time>
      </trkpt>
      <trkpt lat="45.48421" lon="5.47462">
        <ele>412</ele>
        <time>2018-04-27T09:33:34 02:00</time>
      </trkpt>
      <trkpt lat="45.48399" lon="5.47497">
        <ele>415</ele>
        <time>2016-03-01T08:18:48 01:00</time>
      </trkpt>
      <trkpt lat="45.48351" lon="5.47554">
        <ele>419</ele>
        <time>2016-03-01T08:19:08 01:00</time>
      </trkpt>
      <trkpt lat="45.48334" lon="5.47575">
        <ele>422</ele>
        <time>2016-03-01T08:19:26 01:00</time>
      </trkpt>
      <trkpt lat="45.48315" lon="5.47592">
        <ele>423</ele>
        <time>2016-03-01T08:19:46 01:00</time>
      </trkpt>
      <trkpt lat="45.48294" lon="5.4761">
        <ele>425</ele>
        <time>2016-03-01T08:20:17 01:00</time>
      </trkpt>
      <trkpt lat="45.48275" lon="5.47626">
        <ele>427</ele>
        <time>2016-03-01T08:20:38 01:00</time>
      </trkpt>
      <trkpt lat="45.48254" lon="5.47642">
        <ele>429</ele>
        <time>2016-03-01T08:20:57 01:00</time>
      </trkpt>
      <trkpt lat="45.4824" lon="5.47649">
        <ele>431</ele>
        <time>2018-04-27T09:34:14 02:00</time>
      </trkpt>
      <trkpt lat="45.48234" lon="5.4763">
        <ele>431</ele>
        <time>2016-03-01T08:21:45 01:00</time>
      </trkpt>
      <trkpt lat="45.48228" lon="5.476">
        <ele>430</ele>
        <time>2016-03-01T08:22:01 01:00</time>
      </trkpt>
      <trkpt lat="45.48219" lon="5.4757">
        <ele>430</ele>
        <time>2016-03-01T08:22:19 01:00</time>
      </trkpt>
      <trkpt lat="45.48206" lon="5.47542">
        <ele>430</ele>
        <time>2016-03-01T08:22:37 01:00</time>
      </trkpt>
      <trkpt lat="45.48192" lon="5.47517">
        <ele>430</ele>
        <time>2016-03-01T08:23:01 01:00</time>
      </trkpt>
      <trkpt lat="45.48174" lon="5.47496">
        <ele>431</ele>
        <time>2016-03-01T08:23:27 01:00</time>
      </trkpt>
      <trkpt lat="45.48155" lon="5.47477">
        <ele>432</ele>
        <time>2016-03-01T08:23:45 01:00</time>
      </trkpt>
      <trkpt lat="45.48136" lon="5.47458">
        <ele>432</ele>
        <time>2016-03-01T08:24:02 01:00</time>
      </trkpt>
      <trkpt lat="45.4812" lon="5.47434">
        <ele>432</ele>
        <time>2016-03-01T08:24:21 01:00</time>
      </trkpt>
      <trkpt lat="45.48102" lon="5.47414">
        <ele>431</ele>
        <time>2016-03-01T08:24:38 01:00</time>
      </trkpt>
      <trkpt lat="45.48091" lon="5.47408">
        <ele>432</ele>
        <time>2018-04-27T09:35:09 02:00</time>
      </trkpt>
      <trkpt lat="45.48082" lon="5.47398">
        <ele>432</ele>
        <time>2016-03-01T08:24:57 01:00</time>
      </trkpt>
      <trkpt lat="45.48063" lon="5.4738">
        <ele>432</ele>
        <time>2016-03-01T08:25:16 01:00</time>
      </trkpt>
      <trkpt lat="45.48032" lon="5.47349">
        <ele>431</ele>
        <time>2016-03-01T08:25:35 01:00</time>
      </trkpt>
      <trkpt lat="45.48031" lon="5.47336">
        <ele>430</ele>
        <time>2016-03-01T08:26:27 01:00</time>
      </trkpt>
      <trkpt lat="45.48035" lon="5.47304">
        <ele>428</ele>
        <time>2016-03-01T08:26:44 01:00</time>
      </trkpt>
      <trkpt lat="45.48042" lon="5.47272">
        <ele>426</ele>
        <time>2016-03-01T08:27:03 01:00</time>
      </trkpt>
      <trkpt lat="45.48046" lon="5.47239">
        <ele>423</ele>
        <time>2016-03-01T08:27:22 01:00</time>
      </trkpt>
      <trkpt lat="45.48043" lon="5.47207">
        <ele>421</ele>
        <time>2016-03-01T08:27:39 01:00</time>
      </trkpt>
      <trkpt lat="45.48044" lon="5.47174">
        <ele>418</ele>
        <time>2016-03-01T08:27:56 01:00</time>
      </trkpt>
      <trkpt lat="45.48045" lon="5.47141">
        <ele>417</ele>
        <time>2016-03-01T08:28:12 01:00</time>
      </trkpt>
      <trkpt lat="45.48047" lon="5.47108">
        <ele>415</ele>
        <time>2016-03-01T08:28:37 01:00</time>
      </trkpt>
      <trkpt lat="45.48049" lon="5.47075">
        <ele>413</ele>
        <time>2016-03-01T08:28:56 01:00</time>
      </trkpt>
      <trkpt lat="45.48051" lon="5.47043">
        <ele>411</ele>
        <time>2016-03-01T08:29:15 01:00</time>
      </trkpt>
      <trkpt lat="45.48056" lon="5.47009">
        <ele>408</ele>
        <time>2016-03-01T08:29:49 01:00</time>
      </trkpt>
      <trkpt lat="45.48062" lon="5.46999">
        <ele>407</ele>
        <time>2018-04-27T09:36:24 02:00</time>
      </trkpt>
      <trkpt lat="45.48042" lon="5.4698">
        <ele>407</ele>
        <time>2016-03-01T08:30:05 01:00</time>
      </trkpt>
      <trkpt lat="45.48024" lon="5.4696">
        <ele>406</ele>
        <time>2016-03-01T08:30:22 01:00</time>
      </trkpt>
      <trkpt lat="45.48003" lon="5.4694">
        <ele>406</ele>
        <time>2016-03-01T08:30:51 01:00</time>
      </trkpt>
      <trkpt lat="45.47996" lon="5.46944">
        <ele>406</ele>
        <time>2018-04-27T09:36:44 02:00</time>
      </trkpt>
      <trkpt lat="45.4798" lon="5.46942">
        <ele>405</ele>
        <time>2016-03-01T08:31:16 01:00</time>
      </trkpt>
      <trkpt lat="45.47957" lon="5.46938">
        <ele>405</ele>
        <time>2016-03-01T08:31:35 01:00</time>
      </trkpt>
      <trkpt lat="45.47934" lon="5.46933">
        <ele>404</ele>
        <time>2016-03-01T08:32:05 01:00</time>
      </trkpt>
      <trkpt lat="45.47912" lon="5.46934">
        <ele>403</ele>
        <time>2016-03-01T08:32:23 01:00</time>
      </trkpt>
      <trkpt lat="45.47889" lon="5.46935">
        <ele>403</ele>
        <time>2016-03-01T08:32:55 01:00</time>
      </trkpt>
      <trkpt lat="45.47866" lon="5.46937">
        <ele>403</ele>
        <time>2016-03-01T08:33:13 01:00</time>
      </trkpt>
      <trkpt lat="45.47844" lon="5.46933">
        <ele>402</ele>
        <time>2016-03-01T08:33:30 01:00</time>
      </trkpt>
      <trkpt lat="45.47821" lon="5.46921">
        <ele>403</ele>
        <time>2016-03-01T08:33:47 01:00</time>
      </trkpt>
      <trkpt lat="45.47802" lon="5.46904">
        <ele>404</ele>
        <time>2016-03-01T08:34:05 01:00</time>
      </trkpt>
      <trkpt lat="45.47783" lon="5.46885">
        <ele>404</ele>
        <time>2016-03-01T08:34:23 01:00</time>
      </trkpt>
      <trkpt lat="45.47765" lon="5.46864">
        <ele>404</ele>
        <time>2016-03-01T08:34:41 01:00</time>
      </trkpt>
      <trkpt lat="45.4775" lon="5.4684">
        <ele>403</ele>
        <time>2016-03-01T08:35:00 01:00</time>
      </trkpt>
      <trkpt lat="45.47731" lon="5.4682">
        <ele>405</ele>
        <time>2016-03-01T08:35:20 01:00</time>
      </trkpt>
      <trkpt lat="45.4771" lon="5.46804">
        <ele>408</ele>
        <time>2016-03-01T08:35:39 01:00</time>
      </trkpt>
      <trkpt lat="45.4769" lon="5.46787">
        <ele>410</ele>
        <time>2016-03-01T08:35:58 01:00</time>
      </trkpt>
      <trkpt lat="45.4767" lon="5.46772">
        <ele>413</ele>
        <time>2016-03-01T08:36:17 01:00</time>
      </trkpt>
      <trkpt lat="45.4765" lon="5.46755">
        <ele>414</ele>
        <time>2016-03-01T08:36:36 01:00</time>
      </trkpt>
      <trkpt lat="45.47635" lon="5.46731">
        <ele>414</ele>
        <time>2016-03-01T08:36:58 01:00</time>
      </trkpt>
      <trkpt lat="45.47619" lon="5.46706">
        <ele>415</ele>
        <time>2016-03-01T08:37:19 01:00</time>
      </trkpt>
      <trkpt lat="45.47597" lon="5.46696">
        <ele>418</ele>
        <time>2016-03-01T08:37:51 01:00</time>
      </trkpt>
      <trkpt lat="45.47574" lon="5.4669">
        <ele>422</ele>
        <time>2016-03-01T08:38:09 01:00</time>
      </trkpt>
      <trkpt lat="45.47553" lon="5.46672">
        <ele>424</ele>
        <time>2016-03-01T08:38:29 01:00</time>
      </trkpt>
      <trkpt lat="45.47533" lon="5.46657">
        <ele>425</ele>
        <time>2016-03-01T08:38:49 01:00</time>
      </trkpt>
      <trkpt lat="45.47514" lon="5.4664">
        <ele>425</ele>
        <time>2016-03-01T08:39:07 01:00</time>
      </trkpt>
      <trkpt lat="45.47495" lon="5.46622">
        <ele>425</ele>
        <time>2016-03-01T08:39:27 01:00</time>
      </trkpt>
      <trkpt lat="45.47477" lon="5.46602">
        <ele>423</ele>
        <time>2016-03-01T08:39:45 01:00</time>
      </trkpt>
      <trkpt lat="45.47459" lon="5.46584">
        <ele>422</ele>
        <time>2016-03-01T08:40:06 01:00</time>
      </trkpt>
      <trkpt lat="45.47441" lon="5.46564">
        <ele>422</ele>
        <time>2016-03-01T08:40:30 01:00</time>
      </trkpt>
      <trkpt lat="45.47424" lon="5.46543">
        <ele>422</ele>
        <time>2016-03-01T08:40:47 01:00</time>
      </trkpt>
      <trkpt lat="45.47409" lon="5.46518">
        <ele>420</ele>
        <time>2016-03-01T08:41:08 01:00</time>
      </trkpt>
      <trkpt lat="45.47393" lon="5.46495">
        <ele>420</ele>
        <time>2016-03-01T08:41:46 01:00</time>
      </trkpt>
      <trkpt lat="45.47375" lon="5.46473">
        <ele>421</ele>
        <time>2016-03-01T08:42:04 01:00</time>
      </trkpt>
      <trkpt lat="45.47358" lon="5.46451">
        <ele>421</ele>
        <time>2016-03-01T08:42:22 01:00</time>
      </trkpt>
      <trkpt lat="45.47338" lon="5.46433">
        <ele>421</ele>
        <time>2016-03-01T08:42:42 01:00</time>
      </trkpt>
      <trkpt lat="45.47318" lon="5.46418">
        <ele>422</ele>
        <time>2016-03-01T08:43:00 01:00</time>
      </trkpt>
      <trkpt lat="45.47296" lon="5.46413">
        <ele>425</ele>
        <time>2016-03-01T08:43:22 01:00</time>
      </trkpt>
      <trkpt lat="45.47273" lon="5.46407">
        <ele>427</ele>
        <time>2016-03-01T08:43:42 01:00</time>
      </trkpt>
      <trkpt lat="45.47257" lon="5.46384">
        <ele>427</ele>
        <time>2016-03-01T08:44:02 01:00</time>
      </trkpt>
      <trkpt lat="45.47238" lon="5.46367">
        <ele>429</ele>
        <time>2016-03-01T08:44:18 01:00</time>
      </trkpt>
      <trkpt lat="45.47216" lon="5.46352">
        <ele>431</ele>
        <time>2016-03-01T08:44:39 01:00</time>
      </trkpt>
      <trkpt lat="45.47196" lon="5.46336">
        <ele>433</ele>
        <time>2016-03-01T08:44:59 01:00</time>
      </trkpt>
      <trkpt lat="45.4718" lon="5.46314">
        <ele>433</ele>
        <time>2016-03-01T08:45:22 01:00</time>
      </trkpt>
      <trkpt lat="45.47159" lon="5.46299">
        <ele>434</ele>
        <time>2016-03-01T08:45:41 01:00</time>
      </trkpt>
      <trkpt lat="45.47135" lon="5.463">
        <ele>438</ele>
        <time>2016-03-01T08:46:00 01:00</time>
      </trkpt>
      <trkpt lat="45.47113" lon="5.46311">
        <ele>444</ele>
        <time>2016-03-01T08:46:25 01:00</time>
      </trkpt>
      <trkpt lat="45.4709" lon="5.46318">
        <ele>448</ele>
        <time>2016-03-01T08:46:42 01:00</time>
      </trkpt>
      <trkpt lat="45.47068" lon="5.46317">
        <ele>451</ele>
        <time>2016-03-01T08:47:05 01:00</time>
      </trkpt>
      <trkpt lat="45.47044" lon="5.46312">
        <ele>454</ele>
        <time>2016-03-01T08:47:25 01:00</time>
      </trkpt>
      <trkpt lat="45.47024" lon="5.46295">
        <ele>455</ele>
        <time>2016-03-01T08:47:42 01:00</time>
      </trkpt>
      <trkpt lat="45.47003" lon="5.46285">
        <ele>458</ele>
        <time>2016-03-01T08:48:07 01:00</time>
      </trkpt>
      <trkpt lat="45.46985" lon="5.46264">
        <ele>457</ele>
        <time>2016-03-01T08:48:25 01:00</time>
      </trkpt>
      <trkpt lat="45.4696" lon="5.46259">
        <ele>458</ele>
        <time>2016-03-01T08:49:53 01:00</time>
      </trkpt>
      <trkpt lat="45.46937" lon="5.46258">
        <ele>459</ele>
        <time>2016-03-01T08:50:17 01:00</time>
      </trkpt>
      <trkpt lat="45.46917" lon="5.46242">
        <ele>459</ele>
        <time>2016-03-01T08:50:40 01:00</time>
      </trkpt>
      <trkpt lat="45.46899" lon="5.4622">
        <ele>460</ele>
        <time>2016-03-01T08:50:59 01:00</time>
      </trkpt>
      <trkpt lat="45.4688" lon="5.46204">
        <ele>460</ele>
        <time>2016-03-01T08:51:16 01:00</time>
      </trkpt>
      <trkpt lat="45.46856" lon="5.46199">
        <ele>460</ele>
        <time>2016-03-01T08:51:37 01:00</time>
      </trkpt>
      <trkpt lat="45.46832" lon="5.46197">
        <ele>459</ele>
        <time>2016-03-01T08:51:57 01:00</time>
      </trkpt>
      <trkpt lat="45.4681" lon="5.46203">
        <ele>460</ele>
        <time>2016-03-01T08:52:17 01:00</time>
      </trkpt>
      <trkpt lat="45.46787" lon="5.4621">
        <ele>461</ele>
        <time>2016-03-01T08:52:47 01:00</time>
      </trkpt>
      <trkpt lat="45.46763" lon="5.46205">
        <ele>462</ele>
        <time>2016-03-01T08:53:12 01:00</time>
      </trkpt>
      <trkpt lat="45.46741" lon="5.46199">
        <ele>462</ele>
        <time>2016-03-01T08:53:29 01:00</time>
      </trkpt>
      <trkpt lat="45.46719" lon="5.46188">
        <ele>462</ele>
        <time>2016-03-01T08:53:53 01:00</time>
      </trkpt>
      <trkpt lat="45.46697" lon="5.46182">
        <ele>463</ele>
        <time>2016-03-01T08:54:10 01:00</time>
      </trkpt>
      <trkpt lat="45.46674" lon="5.46173">
        <ele>463</ele>
        <time>2016-03-01T08:54:27 01:00</time>
      </trkpt>
      <trkpt lat="45.46652" lon="5.4616">
        <ele>462</ele>
        <time>2016-03-01T08:55:13 01:00</time>
      </trkpt>
      <trkpt lat="45.46629" lon="5.46151">
        <ele>462</ele>
        <time>2016-03-01T08:55:30 01:00</time>
      </trkpt>
      <trkpt lat="45.46609" lon="5.46137">
        <ele>462</ele>
        <time>2016-03-01T08:55:52 01:00</time>
      </trkpt>
      <trkpt lat="45.46586" lon="5.46131">
        <ele>462</ele>
        <time>2016-03-01T08:56:13 01:00</time>
      </trkpt>
      <trkpt lat="45.46563" lon="5.46124">
        <ele>462</ele>
        <time>2016-03-01T08:56:37 01:00</time>
      </trkpt>
      <trkpt lat="45.4654" lon="5.46121">
        <ele>462</ele>
        <time>2016-03-01T08:56:54 01:00</time>
      </trkpt>
      <trkpt lat="45.46516" lon="5.4612">
        <ele>463</ele>
        <time>2016-03-01T08:57:12 01:00</time>
      </trkpt>
      <trkpt lat="45.46493" lon="5.4612">
        <ele>465</ele>
        <time>2016-03-01T08:57:30 01:00</time>
      </trkpt>
      <trkpt lat="45.4647" lon="5.46122">
        <ele>467</ele>
        <time>2016-03-01T08:57:50 01:00</time>
      </trkpt>
      <trkpt lat="45.46446" lon="5.46119">
        <ele>468</ele>
        <time>2016-03-01T08:58:54 01:00</time>
      </trkpt>
      <trkpt lat="45.46424" lon="5.46107">
        <ele>467</ele>
        <time>2016-03-01T08:59:14 01:00</time>
      </trkpt>
      <trkpt lat="45.46401" lon="5.46099">
        <ele>466</ele>
        <time>2016-03-01T08:59:31 01:00</time>
      </trkpt>
      <trkpt lat="45.46384" lon="5.46079">
        <ele>464</ele>
        <time>2016-03-01T08:59:49 01:00</time>
      </trkpt>
      <trkpt lat="45.4637" lon="5.46053">
        <ele>463</ele>
        <time>2016-03-01T09:00:09 01:00</time>
      </trkpt>
      <trkpt lat="45.46367" lon="5.46021">
        <ele>460</ele>
        <time>2016-03-01T09:00:24 01:00</time>
      </trkpt>
      <trkpt lat="45.46354" lon="5.45992">
        <ele>459</ele>
        <time>2016-03-01T09:01:03 01:00</time>
      </trkpt>
      <trkpt lat="45.46338" lon="5.45969">
        <ele>460</ele>
        <time>2016-03-01T09:02:15 01:00</time>
      </trkpt>
      <trkpt lat="45.46326" lon="5.45958">
        <ele>461</ele>
        <time>2016-03-01T09:02:39 01:00</time>
      </trkpt>
      <trkpt lat="45.46292" lon="5.45933">
        <ele>463</ele>
        <time>2016-03-01T09:03:08 01:00</time>
      </trkpt>
      <trkpt lat="45.46279" lon="5.45918">
        <ele>463</ele>
        <time>2016-03-01T09:03:24 01:00</time>
      </trkpt>
      <trkpt lat="45.46261" lon="5.459">
        <ele>463</ele>
        <time>2016-03-01T09:03:45 01:00</time>
      </trkpt>
      <trkpt lat="45.46239" lon="5.45885">
        <ele>464</ele>
        <time>2016-03-01T09:04:02 01:00</time>
      </trkpt>
      <trkpt lat="45.46221" lon="5.45867">
        <ele>464</ele>
        <time>2016-03-01T09:04:20 01:00</time>
      </trkpt>
      <trkpt lat="45.46198" lon="5.45847">
        <ele>464</ele>
        <time>2016-03-01T09:04:39 01:00</time>
      </trkpt>
      <trkpt lat="45.46179" lon="5.45836">
        <ele>464</ele>
        <time>2016-03-01T09:04:55 01:00</time>
      </trkpt>
      <trkpt lat="45.46153" lon="5.45837">
        <ele>467</ele>
        <time>2016-03-01T09:05:17 01:00</time>
      </trkpt>
      <trkpt lat="45.46133" lon="5.4582">
        <ele>469</ele>
        <time>2016-03-01T09:05:39 01:00</time>
      </trkpt>
      <trkpt lat="45.46116" lon="5.458">
        <ele>470</ele>
        <time>2016-03-01T09:05:59 01:00</time>
      </trkpt>
      <trkpt lat="45.46096" lon="5.45784">
        <ele>471</ele>
        <time>2016-03-01T09:06:19 01:00</time>
      </trkpt>
      <trkpt lat="45.46075" lon="5.45766">
        <ele>470</ele>
        <time>2016-03-01T09:06:40 01:00</time>
      </trkpt>
      <trkpt lat="45.46046" lon="5.45758">
        <ele>469</ele>
        <time>2016-03-01T09:06:59 01:00</time>
      </trkpt>
      <trkpt lat="45.46031" lon="5.45759">
        <ele>469</ele>
        <time>2016-03-01T09:08:09 01:00</time>
      </trkpt>
      <trkpt lat="45.46006" lon="5.45773">
        <ele>472</ele>
        <time>2016-03-01T09:08:25 01:00</time>
      </trkpt>
      <trkpt lat="45.45965" lon="5.45795">
        <ele>476</ele>
        <time>2016-03-01T09:09:58 01:00</time>
      </trkpt>
      <trkpt lat="45.45916" lon="5.45787">
        <ele>476</ele>
        <time>2018-04-27T09:45:04 02:00</time>
      </trkpt>
      <trkpt lat="45.45928" lon="5.45723">
        <ele>473</ele>
        <time>2016-03-01T09:12:16 01:00</time>
      </trkpt>
      <trkpt lat="45.45934" lon="5.45688">
        <ele>470</ele>
        <time>2016-03-01T09:12:40 01:00</time>
      </trkpt>
      <trkpt lat="45.45946" lon="5.45628">
        <ele>463</ele>
        <time>2016-03-01T09:13:15 01:00</time>
      </trkpt>
      <trkpt lat="45.45944" lon="5.45585">
        <ele>459</ele>
        <time>2016-03-01T09:14:13 01:00</time>
      </trkpt>
      <trkpt lat="45.45945" lon="5.45628">
        <ele>463</ele>
        <time>2018-04-27T09:45:29 02:00</time>
      </trkpt>
      <trkpt lat="45.45917" lon="5.45786">
        <ele>477</ele>
        <time>2016-03-01T09:17:50 01:00</time>
      </trkpt>
      <trkpt lat="45.45943" lon="5.45792">
        <ele>476</ele>
        <time>2018-04-27T09:45:39 02:00</time>
      </trkpt>
      <trkpt lat="45.45961" lon="5.45796">
        <ele>477</ele>
        <time>2018-04-27T09:45:44 02:00</time>
      </trkpt>
      <trkpt lat="45.45956" lon="5.45881">
        <ele>484</ele>
        <time>2016-03-01T09:20:23 01:00</time>
      </trkpt>
      <trkpt lat="45.45958" lon="5.45985">
        <ele>492</ele>
        <time>2016-03-01T09:21:16 01:00</time>
      </trkpt>
      <trkpt lat="45.45955" lon="5.46036">
        <ele>498</ele>
        <time>2018-04-27T09:45:59 02:00</time>
      </trkpt>
      <trkpt lat="45.45942" lon="5.46094">
        <ele>503</ele>
        <time>2016-03-01T09:22:30 01:00</time>
      </trkpt>
      <trkpt lat="45.45928" lon="5.46139">
        <ele>507</ele>
        <time>2018-04-27T09:46:09 02:00</time>
      </trkpt>
      <trkpt lat="45.45919" lon="5.46174">
        <ele>509</ele>
        <time>2018-04-27T09:46:14 02:00</time>
      </trkpt>
      <trkpt lat="45.45906" lon="5.46219">
        <ele>516</ele>
        <time>2018-04-27T09:46:19 02:00</time>
      </trkpt>
      <trkpt lat="45.45909" lon="5.46261">
        <ele>519</ele>
        <time>2018-04-27T09:46:24 02:00</time>
      </trkpt>
      <trkpt lat="45.45929" lon="5.46302">
        <ele>522</ele>
        <time>2016-03-01T09:24:57 01:00</time>
      </trkpt>
      <trkpt lat="45.45943" lon="5.4633">
        <ele>526</ele>
        <time>2016-03-01T09:25:28 01:00</time>
      </trkpt>
      <trkpt lat="45.45951" lon="5.46362">
        <ele>531</ele>
        <time>2016-03-01T09:25:51 01:00</time>
      </trkpt>
      <trkpt lat="45.45959" lon="5.46396">
        <ele>535</ele>
        <time>2016-03-01T09:26:14 01:00</time>
      </trkpt>
      <trkpt lat="45.45963" lon="5.46471">
        <ele>541</ele>
        <time>2018-04-27T09:46:49 02:00</time>
      </trkpt>
      <trkpt lat="45.45939" lon="5.46545">
        <ele>548</ele>
        <time>2018-04-27T09:46:54 02:00</time>
      </trkpt>
      <trkpt lat="45.45892" lon="5.46628">
        <ele>561</ele>
        <time>2016-03-01T09:29:23 01:00</time>
      </trkpt>
      <trkpt lat="45.45881" lon="5.46656">
        <ele>564</ele>
        <time>2016-03-01T09:29:41 01:00</time>
      </trkpt>
      <trkpt lat="45.45868" lon="5.46681">
        <ele>567</ele>
        <time>2016-03-01T09:30:05 01:00</time>
      </trkpt>
      <trkpt lat="45.45853" lon="5.46707">
        <ele>568</ele>
        <time>2016-03-01T09:30:32 01:00</time>
      </trkpt>
      <trkpt lat="45.45829" lon="5.46754">
        <ele>570</ele>
        <time>2018-04-27T09:47:19 02:00</time>
      </trkpt>
      <trkpt lat="45.45806" lon="5.46768">
        <ele>577</ele>
        <time>2018-04-27T09:47:24 02:00</time>
      </trkpt>
      <trkpt lat="45.45786" lon="5.46772">
        <ele>581</ele>
        <time>2018-04-27T09:47:29 02:00</time>
      </trkpt>
      <trkpt lat="45.45759" lon="5.46758">
        <ele>582</ele>
        <time>2018-04-27T09:47:34 02:00</time>
      </trkpt>
      <trkpt lat="45.45716" lon="5.46754">
        <ele>587</ele>
        <time>2018-04-27T09:47:39 02:00</time>
      </trkpt>
      <trkpt lat="45.45636" lon="5.46766">
        <ele>602</ele>
        <time>2016-03-01T09:34:32 01:00</time>
      </trkpt>
      <trkpt lat="45.45594" lon="5.46774">
        <ele>608</ele>
        <time>2018-04-27T09:47:49 02:00</time>
      </trkpt>
      <trkpt lat="45.45553" lon="5.46771">
        <ele>613</ele>
        <time>2018-04-27T09:47:54 02:00</time>
      </trkpt>
      <trkpt lat="45.45516" lon="5.46769">
        <ele>618</ele>
        <time>2018-04-27T09:47:59 02:00</time>
      </trkpt>
      <trkpt lat="45.45479" lon="5.46756">
        <ele>619</ele>
        <time>2018-04-27T09:48:04 02:00</time>
      </trkpt>
      <trkpt lat="45.45363" lon="5.46713">
        <ele>623</ele>
        <time>2018-04-27T09:48:09 02:00</time>
      </trkpt>
      <trkpt lat="45.45296" lon="5.4669">
        <ele>626</ele>
        <time>2018-04-27T09:48:14 02:00</time>
      </trkpt>
      <trkpt lat="45.45244" lon="5.46662">
        <ele>626</ele>
        <time>2016-03-01T09:44:32 01:00</time>
      </trkpt>
      <trkpt lat="45.45211" lon="5.46631">
        <ele>628</ele>
        <time>2018-04-27T09:48:24 02:00</time>
      </trkpt>
      <trkpt lat="45.45186" lon="5.46609">
        <ele>628</ele>
        <time>2018-04-27T09:48:29 02:00</time>
      </trkpt>
      <trkpt lat="45.4517" lon="5.46604">
        <ele>627</ele>
        <time>2018-04-27T09:48:34 02:00</time>
      </trkpt>
      <trkpt lat="45.45182" lon="5.46623">
        <ele>628</ele>
        <time>2018-04-27T09:48:39 02:00</time>
      </trkpt>
      <trkpt lat="45.45181" lon="5.4665">
        <ele>627</ele>
        <time>2018-04-27T09:48:44 02:00</time>
      </trkpt>
      <trkpt lat="45.4517" lon="5.46661">
        <ele>627</ele>
        <time>2018-04-27T09:48:49 02:00</time>
      </trkpt>
      <trkpt lat="45.45126" lon="5.46677">
        <ele>628</ele>
        <time>2016-03-01T09:45:31 01:00</time>
      </trkpt>
      <trkpt lat="45.45113" lon="5.46684">
        <ele>629</ele>
        <time>2016-03-01T09:45:49 01:00</time>
      </trkpt>
      <trkpt lat="45.45088" lon="5.46714">
        <ele>637</ele>
        <time>2016-03-01T09:46:19 01:00</time>
      </trkpt>
      <trkpt lat="45.45059" lon="5.46731">
        <ele>643</ele>
        <time>2018-04-27T09:49:09 02:00</time>
      </trkpt>
      <trkpt lat="45.45006" lon="5.46745">
        <ele>648</ele>
        <time>2016-03-01T09:47:53 01:00</time>
      </trkpt>
      <trkpt lat="45.44989" lon="5.46741">
        <ele>650</ele>
        <time>2018-04-27T09:49:19 02:00</time>
      </trkpt>
      <trkpt lat="45.44976" lon="5.4673">
        <ele>651</ele>
        <time>2016-03-01T09:48:10 01:00</time>
      </trkpt>
      <trkpt lat="45.44927" lon="5.46694">
        <ele>653</ele>
        <time>2018-04-27T09:49:29 02:00</time>
      </trkpt>
      <trkpt lat="45.449" lon="5.46678">
        <ele>654</ele>
        <time>2018-04-27T09:49:34 02:00</time>
      </trkpt>
      <trkpt lat="45.44877" lon="5.46687">
        <ele>660</ele>
        <time>2018-04-27T09:49:39 02:00</time>
      </trkpt>
      <trkpt lat="45.44859" lon="5.46695">
        <ele>665</ele>
        <time>2018-04-27T09:49:44 02:00</time>
      </trkpt>
      <trkpt lat="45.44796" lon="5.46704">
        <ele>675</ele>
        <time>2016-03-01T09:51:26 01:00</time>
      </trkpt>
      <trkpt lat="45.44775" lon="5.46695">
        <ele>674</ele>
        <time>2016-03-01T09:51:47 01:00</time>
      </trkpt>
      <trkpt lat="45.4475" lon="5.46684">
        <ele>672</ele>
        <time>2016-03-01T09:52:11 01:00</time>
      </trkpt>
      <trkpt lat="45.44708" lon="5.46678">
        <ele>674</ele>
        <time>2016-03-01T09:52:51 01:00</time>
      </trkpt>
      <trkpt lat="45.44685" lon="5.46679">
        <ele>676</ele>
        <time>2016-03-01T09:53:18 01:00</time>
      </trkpt>
      <trkpt lat="45.44663" lon="5.46681">
        <ele>678</ele>
        <time>2016-03-01T09:53:39 01:00</time>
      </trkpt>
      <trkpt lat="45.44636" lon="5.46684">
        <ele>683</ele>
        <time>2018-04-27T09:50:19 02:00</time>
      </trkpt>
      <trkpt lat="45.44622" lon="5.46683">
        <ele>684</ele>
        <time>2018-04-27T09:50:24 02:00</time>
      </trkpt>
      <trkpt lat="45.44609" lon="5.46675">
        <ele>684</ele>
        <time>2016-03-01T09:54:25 01:00</time>
      </trkpt>
      <trkpt lat="45.44534" lon="5.46656">
        <ele>690</ele>
        <time>2018-04-27T09:50:34 02:00</time>
      </trkpt>
      <trkpt lat="45.44522" lon="5.46665">
        <ele>694</ele>
        <time>2016-03-01T09:56:15 01:00</time>
      </trkpt>
      <trkpt lat="45.44544" lon="5.46692">
        <ele>695</ele>
        <time>2016-03-01T09:59:18 01:00</time>
      </trkpt>
      <trkpt lat="45.44564" lon="5.46717">
        <ele>699</ele>
        <time>2016-03-01T10:00:00 01:00</time>
      </trkpt>
      <trkpt lat="45.44594" lon="5.46754">
        <ele>706</ele>
        <time>2016-03-01T10:00:14 01:00</time>
      </trkpt>
      <trkpt lat="45.44615" lon="5.46801">
        <ele>716</ele>
        <time>2018-04-27T09:50:59 02:00</time>
      </trkpt>
      <trkpt lat="45.44642" lon="5.46838">
        <ele>721</ele>
        <time>2016-03-01T10:03:39 01:00</time>
      </trkpt>
      <trkpt lat="45.44676" lon="5.46894">
        <ele>728</ele>
        <time>2018-04-27T09:51:09 02:00</time>
      </trkpt>
      <trkpt lat="45.44732" lon="5.46957">
        <ele>732</ele>
        <time>2016-03-01T10:06:33 01:00</time>
      </trkpt>
      <trkpt lat="45.44748" lon="5.46971">
        <ele>732</ele>
        <time>2018-04-27T09:51:19 02:00</time>
      </trkpt>
      <trkpt lat="45.44759" lon="5.46986">
        <ele>733</ele>
        <time>2018-04-27T09:51:24 02:00</time>
      </trkpt>
      <trkpt lat="45.44794" lon="5.47006">
        <ele>731</ele>
        <time>2016-03-01T10:07:25 01:00</time>
      </trkpt>
      <trkpt lat="45.44815" lon="5.47019">
        <ele>730</ele>
        <time>2016-03-01T10:07:42 01:00</time>
      </trkpt>
      <trkpt lat="45.44837" lon="5.47031">
        <ele>729</ele>
        <time>2016-03-01T10:07:58 01:00</time>
      </trkpt>
      <trkpt lat="45.44858" lon="5.47043">
        <ele>729</ele>
        <time>2016-03-01T10:08:19 01:00</time>
      </trkpt>
      <trkpt lat="45.4488" lon="5.47051">
        <ele>728</ele>
        <time>2016-03-01T10:08:42 01:00</time>
      </trkpt>
      <trkpt lat="45.44902" lon="5.47057">
        <ele>726</ele>
        <time>2016-03-01T10:09:04 01:00</time>
      </trkpt>
      <trkpt lat="45.44926" lon="5.47061">
        <ele>723</ele>
        <time>2016-03-01T10:09:29 01:00</time>
      </trkpt>
      <trkpt lat="45.44949" lon="5.47067">
        <ele>722</ele>
        <time>2016-03-01T10:09:46 01:00</time>
      </trkpt>
      <trkpt lat="45.44968" lon="5.47086">
        <ele>723</ele>
        <time>2016-03-01T10:10:05 01:00</time>
      </trkpt>
      <trkpt lat="45.44983" lon="5.4711">
        <ele>724</ele>
        <time>2016-03-01T10:10:19 01:00</time>
      </trkpt>
      <trkpt lat="45.44999" lon="5.47134">
        <ele>725</ele>
        <time>2016-03-01T10:10:31 01:00</time>
      </trkpt>
      <trkpt lat="45.45009" lon="5.47163">
        <ele>727</ele>
        <time>2016-03-01T10:10:49 01:00</time>
      </trkpt>
      <trkpt lat="45.45039" lon="5.47204">
        <ele>729</ele>
        <time>2018-04-27T09:52:29 02:00</time>
      </trkpt>
      <trkpt lat="45.45056" lon="5.47218">
        <ele>730</ele>
        <time>2016-03-01T10:12:11 01:00</time>
      </trkpt>
      <trkpt lat="45.45067" lon="5.47228">
        <ele>730</ele>
        <time>2018-04-27T09:52:39 02:00</time>
      </trkpt>
      <trkpt lat="45.45079" lon="5.47226">
        <ele>728</ele>
        <time>2016-03-01T10:14:06 01:00</time>
      </trkpt>
      <trkpt lat="45.45099" lon="5.47226">
        <ele>729</ele>
        <time>2016-03-01T10:15:07 01:00</time>
      </trkpt>
      <trkpt lat="45.45118" lon="5.47218">
        <ele>728</ele>
        <time>2016-03-01T10:15:26 01:00</time>
      </trkpt>
      <trkpt lat="45.45147" lon="5.47209">
        <ele>729</ele>
        <time>2016-03-01T10:15:44 01:00</time>
      </trkpt>
      <trkpt lat="45.45171" lon="5.47202">
        <ele>728</ele>
        <time>2016-03-01T10:16:07 01:00</time>
      </trkpt>
      <trkpt lat="45.45197" lon="5.47221">
        <ele>729</ele>
        <time>2018-04-27T09:53:09 02:00</time>
      </trkpt>
      <trkpt lat="45.45235" lon="5.47292">
        <ele>735</ele>
        <time>2016-03-01T10:17:19 01:00</time>
      </trkpt>
      <trkpt lat="45.45254" lon="5.47313">
        <ele>736</ele>
        <time>2016-03-01T10:17:41 01:00</time>
      </trkpt>
      <trkpt lat="45.45289" lon="5.47352">
        <ele>733</ele>
        <time>2016-03-01T10:18:15 01:00</time>
      </trkpt>
      <trkpt lat="45.45306" lon="5.47377">
        <ele>732</ele>
        <time>2018-04-27T09:53:29 02:00</time>
      </trkpt>
      <trkpt lat="45.45322" lon="5.47407">
        <ele>733</ele>
        <time>2018-04-27T09:53:34 02:00</time>
      </trkpt>
      <trkpt lat="45.45356" lon="5.47446">
        <ele>731</ele>
        <time>2016-03-01T10:19:28 01:00</time>
      </trkpt>
      <trkpt lat="45.45382" lon="5.47501">
        <ele>733</ele>
        <time>2016-03-01T10:20:06 01:00</time>
      </trkpt>
      <trkpt lat="45.45407" lon="5.47512">
        <ele>730</ele>
        <time>2016-03-01T10:20:27 01:00</time>
      </trkpt>
      <trkpt lat="45.45437" lon="5.47523">
        <ele>727</ele>
        <time>2016-03-01T10:20:50 01:00</time>
      </trkpt>
      <trkpt lat="45.45532" lon="5.47588">
        <ele>720</ele>
        <time>2016-03-01T10:22:25 01:00</time>
      </trkpt>
      <trkpt lat="45.45563" lon="5.47621">
        <ele>717</ele>
        <time>2018-04-27T09:54:04 02:00</time>
      </trkpt>
      <trkpt lat="45.45583" lon="5.47632">
        <ele>713</ele>
        <time>2018-04-27T09:54:09 02:00</time>
      </trkpt>
      <trkpt lat="45.4561" lon="5.47634">
        <ele>711</ele>
        <time>2016-03-01T10:23:44 01:00</time>
      </trkpt>
      <trkpt lat="45.45679" lon="5.47642">
        <ele>707</ele>
        <time>2018-04-27T09:54:19 02:00</time>
      </trkpt>
      <trkpt lat="45.45737" lon="5.47658">
        <ele>705</ele>
        <time>2018-04-27T09:54:24 02:00</time>
      </trkpt>
      <trkpt lat="45.45757" lon="5.4768">
        <ele>707</ele>
        <time>2016-03-01T10:26:18 01:00</time>
      </trkpt>
      <trkpt lat="45.45774" lon="5.47697">
        <ele>707</ele>
        <time>2016-03-01T10:26:32 01:00</time>
      </trkpt>
      <trkpt lat="45.45789" lon="5.47723">
        <ele>709</ele>
        <time>2016-03-01T10:27:03 01:00</time>
      </trkpt>
      <trkpt lat="45.45805" lon="5.47747">
        <ele>710</ele>
        <time>2016-03-01T10:28:56 01:00</time>
      </trkpt>
      <trkpt lat="45.45825" lon="5.47765">
        <ele>710</ele>
        <time>2016-03-01T10:29:13 01:00</time>
      </trkpt>
      <trkpt lat="45.45841" lon="5.47787">
        <ele>711</ele>
        <time>2016-03-01T10:29:31 01:00</time>
      </trkpt>
      <trkpt lat="45.45858" lon="5.47808">
        <ele>712</ele>
        <time>2016-03-01T10:29:47 01:00</time>
      </trkpt>
      <trkpt lat="45.45874" lon="5.47833">
        <ele>712</ele>
        <time>2016-03-01T10:30:07 01:00</time>
      </trkpt>
      <trkpt lat="45.45891" lon="5.47859">
        <ele>711</ele>
        <time>2016-03-01T10:30:27 01:00</time>
      </trkpt>
      <trkpt lat="45.45906" lon="5.47882">
        <ele>710</ele>
        <time>2016-03-01T10:30:43 01:00</time>
      </trkpt>
      <trkpt lat="45.45922" lon="5.47903">
        <ele>710</ele>
        <time>2016-03-01T10:31:04 01:00</time>
      </trkpt>
      <trkpt lat="45.4594" lon="5.47927">
        <ele>711</ele>
        <time>2016-03-01T10:32:01 01:00</time>
      </trkpt>
      <trkpt lat="45.45961" lon="5.47944">
        <ele>710</ele>
        <time>2016-03-01T10:32:51 01:00</time>
      </trkpt>
      <trkpt lat="45.45982" lon="5.47962">
        <ele>710</ele>
        <time>2016-03-01T10:33:08 01:00</time>
      </trkpt>
      <trkpt lat="45.46003" lon="5.47979">
        <ele>710</ele>
        <time>2016-03-01T10:33:32 01:00</time>
      </trkpt>
      <trkpt lat="45.46026" lon="5.4798">
        <ele>708</ele>
        <time>2016-03-01T10:33:51 01:00</time>
      </trkpt>
      <trkpt lat="45.4605" lon="5.4798">
        <ele>707</ele>
        <time>2016-03-01T10:34:12 01:00</time>
      </trkpt>
      <trkpt lat="45.46073" lon="5.47978">
        <ele>705</ele>
        <time>2016-03-01T10:34:33 01:00</time>
      </trkpt>
      <trkpt lat="45.46097" lon="5.47984">
        <ele>703</ele>
        <time>2016-03-01T10:34:53 01:00</time>
      </trkpt>
      <trkpt lat="45.4612" lon="5.47986">
        <ele>699</ele>
        <time>2016-03-01T10:35:06 01:00</time>
      </trkpt>
      <trkpt lat="45.46143" lon="5.47997">
        <ele>697</ele>
        <time>2016-03-01T10:35:30 01:00</time>
      </trkpt>
      <trkpt lat="45.46164" lon="5.48009">
        <ele>694</ele>
        <time>2016-03-01T10:35:44 01:00</time>
      </trkpt>
      <trkpt lat="45.46183" lon="5.48027">
        <ele>691</ele>
        <time>2016-03-01T10:36:05 01:00</time>
      </trkpt>
      <trkpt lat="45.46202" lon="5.48047">
        <ele>689</ele>
        <time>2016-03-01T10:36:22 01:00</time>
      </trkpt>
      <trkpt lat="45.46221" lon="5.48067">
        <ele>686</ele>
        <time>2016-03-01T10:36:39 01:00</time>
      </trkpt>
      <trkpt lat="45.46238" lon="5.48088">
        <ele>684</ele>
        <time>2016-03-01T10:36:56 01:00</time>
      </trkpt>
      <trkpt lat="45.4625" lon="5.48115">
        <ele>683</ele>
        <time>2016-03-01T10:37:15 01:00</time>
      </trkpt>
      <trkpt lat="45.46269" lon="5.48134">
        <ele>682</ele>
        <time>2016-03-01T10:37:35 01:00</time>
      </trkpt>
      <trkpt lat="45.46287" lon="5.48155">
        <ele>681</ele>
        <time>2016-03-01T10:38:05 01:00</time>
      </trkpt>
      <trkpt lat="45.46309" lon="5.48168">
        <ele>680</ele>
        <time>2016-03-01T10:38:36 01:00</time>
      </trkpt>
      <trkpt lat="45.46331" lon="5.48181">
        <ele>678</ele>
        <time>2016-03-01T10:38:52 01:00</time>
      </trkpt>
      <trkpt lat="45.46354" lon="5.48187">
        <ele>677</ele>
        <time>2016-03-01T10:39:10 01:00</time>
      </trkpt>
      <trkpt lat="45.46378" lon="5.48185">
        <ele>675</ele>
        <time>2016-03-01T10:39:31 01:00</time>
      </trkpt>
      <trkpt lat="45.46401" lon="5.48186">
        <ele>674</ele>
        <time>2016-03-01T10:39:51 01:00</time>
      </trkpt>
      <trkpt lat="45.46423" lon="5.48191">
        <ele>672</ele>
        <time>2016-03-01T10:40:20 01:00</time>
      </trkpt>
      <trkpt lat="45.46446" lon="5.48197">
        <ele>669</ele>
        <time>2016-03-01T10:40:41 01:00</time>
      </trkpt>
      <trkpt lat="45.46467" lon="5.48207">
        <ele>666</ele>
        <time>2016-03-01T10:40:58 01:00</time>
      </trkpt>
      <trkpt lat="45.46489" lon="5.48221">
        <ele>663</ele>
        <time>2016-03-01T10:41:16 01:00</time>
      </trkpt>
      <trkpt lat="45.46508" lon="5.48239">
        <ele>661</ele>
        <time>2016-03-01T10:41:35 01:00</time>
      </trkpt>
      <trkpt lat="45.46528" lon="5.48256">
        <ele>659</ele>
        <time>2016-03-01T10:41:52 01:00</time>
      </trkpt>
      <trkpt lat="45.46547" lon="5.48274">
        <ele>657</ele>
        <time>2016-03-01T10:42:15 01:00</time>
      </trkpt>
      <trkpt lat="45.46568" lon="5.48288">
        <ele>655</ele>
        <time>2016-03-01T10:42:31 01:00</time>
      </trkpt>
      <trkpt lat="45.4659" lon="5.483">
        <ele>653</ele>
        <time>2016-03-01T10:42:46 01:00</time>
      </trkpt>
      <trkpt lat="45.46612" lon="5.48313">
        <ele>652</ele>
        <time>2016-03-01T10:43:06 01:00</time>
      </trkpt>
      <trkpt lat="45.46634" lon="5.48323">
        <ele>651</ele>
        <time>2016-03-01T10:43:26 01:00</time>
      </trkpt>
      <trkpt lat="45.46656" lon="5.48336">
        <ele>650</ele>
        <time>2016-03-01T10:43:46 01:00</time>
      </trkpt>
      <trkpt lat="45.46678" lon="5.4834">
        <ele>649</ele>
        <time>2016-03-01T10:44:06 01:00</time>
      </trkpt>
      <trkpt lat="45.467" lon="5.48348">
        <ele>649</ele>
        <time>2016-03-01T10:45:14 01:00</time>
      </trkpt>
      <trkpt lat="45.46723" lon="5.48339">
        <ele>648</ele>
        <time>2016-03-01T10:45:53 01:00</time>
      </trkpt>
      <trkpt lat="45.46746" lon="5.48329">
        <ele>648</ele>
        <time>2016-03-01T10:46:12 01:00</time>
      </trkpt>
      <trkpt lat="45.46767" lon="5.48318">
        <ele>647</ele>
        <time>2016-03-01T10:46:29 01:00</time>
      </trkpt>
      <trkpt lat="45.46795" lon="5.48303">
        <ele>645</ele>
        <time>2016-03-01T10:47:11 01:00</time>
      </trkpt>
      <trkpt lat="45.46808" lon="5.48324">
        <ele>645</ele>
        <time>2016-03-01T10:47:38 01:00</time>
      </trkpt>
      <trkpt lat="45.46824" lon="5.48348">
        <ele>646</ele>
        <time>2016-03-01T10:48:23 01:00</time>
      </trkpt>
      <trkpt lat="45.4684" lon="5.48373">
        <ele>645</ele>
        <time>2016-03-01T10:48:44 01:00</time>
      </trkpt>
      <trkpt lat="45.46856" lon="5.48397">
        <ele>645</ele>
        <time>2016-03-01T10:49:03 01:00</time>
      </trkpt>
      <trkpt lat="45.46871" lon="5.48422">
        <ele>645</ele>
        <time>2016-03-01T10:49:21 01:00</time>
      </trkpt>
      <trkpt lat="45.46886" lon="5.48446">
        <ele>645</ele>
        <time>2016-03-01T10:49:38 01:00</time>
      </trkpt>
      <trkpt lat="45.46904" lon="5.48465">
        <ele>646</ele>
        <time>2016-03-01T10:49:54 01:00</time>
      </trkpt>
      <trkpt lat="45.46922" lon="5.48487">
        <ele>647</ele>
        <time>2016-03-01T10:50:11 01:00</time>
      </trkpt>
      <trkpt lat="45.46941" lon="5.48506">
        <ele>646</ele>
        <time>2016-03-01T10:50:30 01:00</time>
      </trkpt>
      <trkpt lat="45.46961" lon="5.48523">
        <ele>645</ele>
        <time>2016-03-01T10:50:48 01:00</time>
      </trkpt>
      <trkpt lat="45.46984" lon="5.4853">
        <ele>643</ele>
        <time>2016-03-01T10:51:05 01:00</time>
      </trkpt>
      <trkpt lat="45.47005" lon="5.48544">
        <ele>641</ele>
        <time>2016-03-01T10:51:23 01:00</time>
      </trkpt>
      <trkpt lat="45.47027" lon="5.48554">
        <ele>639</ele>
        <time>2016-03-01T10:51:41 01:00</time>
      </trkpt>
      <trkpt lat="45.47049" lon="5.48562">
        <ele>636</ele>
        <time>2016-03-01T10:51:59 01:00</time>
      </trkpt>
      <trkpt lat="45.4707" lon="5.48576">
        <ele>634</ele>
        <time>2016-03-01T10:52:17 01:00</time>
      </trkpt>
      <trkpt lat="45.47084" lon="5.48604">
        <ele>634</ele>
        <time>2016-03-01T10:52:34 01:00</time>
      </trkpt>
      <trkpt lat="45.47106" lon="5.48615">
        <ele>633</ele>
        <time>2016-03-01T10:53:13 01:00</time>
      </trkpt>
      <trkpt lat="45.47129" lon="5.48617">
        <ele>632</ele>
        <time>2016-03-01T10:53:31 01:00</time>
      </trkpt>
      <trkpt lat="45.47152" lon="5.48616">
        <ele>630</ele>
        <time>2016-03-01T10:53:50 01:00</time>
      </trkpt>
      <trkpt lat="45.47176" lon="5.4862">
        <ele>629</ele>
        <time>2016-03-01T10:54:23 01:00</time>
      </trkpt>
      <trkpt lat="45.47199" lon="5.48624">
        <ele>627</ele>
        <time>2016-03-01T10:54:44 01:00</time>
      </trkpt>
      <trkpt lat="45.47221" lon="5.48617">
        <ele>624</ele>
        <time>2016-03-01T10:55:02 01:00</time>
      </trkpt>
      <trkpt lat="45.47243" lon="5.48603">
        <ele>620</ele>
        <time>2016-03-01T10:55:18 01:00</time>
      </trkpt>
      <trkpt lat="45.47265" lon="5.48591">
        <ele>616</ele>
        <time>2016-03-01T10:55:34 01:00</time>
      </trkpt>
      <trkpt lat="45.47285" lon="5.48581">
        <ele>614</ele>
        <time>2016-03-01T10:55:51 01:00</time>
      </trkpt>
      <trkpt lat="45.47354" lon="5.48544">
        <ele>604</ele>
        <time>2016-03-01T10:56:53 01:00</time>
      </trkpt>
      <trkpt lat="45.47377" lon="5.48536">
        <ele>602</ele>
        <time>2016-03-01T10:57:09 01:00</time>
      </trkpt>
      <trkpt lat="45.474" lon="5.4853">
        <ele>599</ele>
        <time>2016-03-01T10:57:32 01:00</time>
      </trkpt>
      <trkpt lat="45.47422" lon="5.4852">
        <ele>597</ele>
        <time>2016-03-01T10:57:51 01:00</time>
      </trkpt>
      <trkpt lat="45.47444" lon="5.48508">
        <ele>594</ele>
        <time>2016-03-01T10:58:11 01:00</time>
      </trkpt>
      <trkpt lat="45.47465" lon="5.48496">
        <ele>591</ele>
        <time>2016-03-01T10:58:29 01:00</time>
      </trkpt>
      <trkpt lat="45.47486" lon="5.48482">
        <ele>588</ele>
        <time>2016-03-01T10:58:54 01:00</time>
      </trkpt>
      <trkpt lat="45.47493" lon="5.4848">
        <ele>588</ele>
        <time>2018-04-27T10:01:29 02:00</time>
      </trkpt>
      <trkpt lat="45.47502" lon="5.48505">
        <ele>589</ele>
        <time>2016-03-01T10:59:52 01:00</time>
      </trkpt>
      <trkpt lat="45.47513" lon="5.48535">
        <ele>590</ele>
        <time>2016-03-01T11:00:07 01:00</time>
      </trkpt>
      <trkpt lat="45.47521" lon="5.48562">
        <ele>591</ele>
        <time>2016-03-01T11:00:25 01:00</time>
      </trkpt>
      <trkpt lat="45.47528" lon="5.48596">
        <ele>591</ele>
        <time>2016-03-01T11:00:44 01:00</time>
      </trkpt>
      <trkpt lat="45.47556" lon="5.48601">
        <ele>588</ele>
        <time>2016-03-01T11:01:10 01:00</time>
      </trkpt>
      <trkpt lat="45.47579" lon="5.48595">
        <ele>586</ele>
        <time>2016-03-01T11:01:28 01:00</time>
      </trkpt>
      <trkpt lat="45.47601" lon="5.48582">
        <ele>583</ele>
        <time>2016-03-01T11:01:47 01:00</time>
      </trkpt>
      <trkpt lat="45.47622" lon="5.4857">
        <ele>581</ele>
        <time>2016-03-01T11:02:04 01:00</time>
      </trkpt>
      <trkpt lat="45.47643" lon="5.48559">
        <ele>579</ele>
        <time>2016-03-01T11:02:23 01:00</time>
      </trkpt>
      <trkpt lat="45.47663" lon="5.48543">
        <ele>576</ele>
        <time>2016-03-01T11:02:40 01:00</time>
      </trkpt>
      <trkpt lat="45.4768" lon="5.48522">
        <ele>574</ele>
        <time>2016-03-01T11:03:01 01:00</time>
      </trkpt>
      <trkpt lat="45.47696" lon="5.48491">
        <ele>572</ele>
        <time>2016-03-01T11:03:21 01:00</time>
      </trkpt>
      <trkpt lat="45.47715" lon="5.48472">
        <ele>571</ele>
        <time>2016-03-01T11:03:38 01:00</time>
      </trkpt>
      <trkpt lat="45.47732" lon="5.4846">
        <ele>569</ele>
        <time>2016-03-01T11:04:05 01:00</time>
      </trkpt>
      <trkpt lat="45.47741" lon="5.4843">
        <ele>568</ele>
        <time>2016-03-01T11:04:26 01:00</time>
      </trkpt>
      <trkpt lat="45.47751" lon="5.48397">
        <ele>566</ele>
        <time>2016-03-01T11:04:42 01:00</time>
      </trkpt>
      <trkpt lat="45.47767" lon="5.48395">
        <ele>565</ele>
        <time>2016-03-01T11:05:25 01:00</time>
      </trkpt>
      <trkpt lat="45.47773" lon="5.48401">
        <ele>565</ele>
        <time>2018-04-27T10:02:59 02:00</time>
      </trkpt>
      <trkpt lat="45.478" lon="5.4839">
        <ele>563</ele>
        <time>2016-03-01T11:05:47 01:00</time>
      </trkpt>
      <trkpt lat="45.47823" lon="5.48383">
        <ele>561</ele>
        <time>2016-03-01T11:07:11 01:00</time>
      </trkpt>
      <trkpt lat="45.47843" lon="5.48375">
        <ele>559</ele>
        <time>2016-03-01T11:07:46 01:00</time>
      </trkpt>
      <trkpt lat="45.47865" lon="5.48375">
        <ele>556</ele>
        <time>2016-03-01T11:08:04 01:00</time>
      </trkpt>
      <trkpt lat="45.47877" lon="5.48369">
        <ele>555</ele>
        <time>2018-04-27T10:03:24 02:00</time>
      </trkpt>
      <trkpt lat="45.47887" lon="5.48362">
        <ele>554</ele>
        <time>2016-03-01T11:08:40 01:00</time>
      </trkpt>
      <trkpt lat="45.47901" lon="5.48334">
        <ele>553</ele>
        <time>2016-03-01T11:09:00 01:00</time>
      </trkpt>
      <trkpt lat="45.47916" lon="5.48309">
        <ele>551</ele>
        <time>2016-03-01T11:09:17 01:00</time>
      </trkpt>
      <trkpt lat="45.47931" lon="5.48284">
        <ele>547</ele>
        <time>2016-03-01T11:09:37 01:00</time>
      </trkpt>
      <trkpt lat="45.47942" lon="5.48256">
        <ele>543</ele>
        <time>2016-03-01T11:10:06 01:00</time>
      </trkpt>
      <trkpt lat="45.4796" lon="5.48231">
        <ele>538</ele>
        <time>2016-03-01T11:10:23 01:00</time>
      </trkpt>
      <trkpt lat="45.47972" lon="5.48214">
        <ele>535</ele>
        <time>2018-04-27T10:03:59 02:00</time>
      </trkpt>
      <trkpt lat="45.47976" lon="5.48188">
        <ele>535</ele>
        <time>2018-04-27T10:04:04 02:00</time>
      </trkpt>
      <trkpt lat="45.47969" lon="5.48123">
        <ele>533</ele>
        <time>2018-04-27T10:04:09 02:00</time>
      </trkpt>
      <trkpt lat="45.47963" lon="5.48055">
        <ele>529</ele>
        <time>2018-04-27T10:04:14 02:00</time>
      </trkpt>
      <trkpt lat="45.47956" lon="5.48038">
        <ele>529</ele>
        <time>2018-04-27T10:04:19 02:00</time>
      </trkpt>
      <trkpt lat="45.47936" lon="5.4802">
        <ele>530</ele>
        <time>2018-04-27T10:04:24 02:00</time>
      </trkpt>
      <trkpt lat="45.47956" lon="5.48037">
        <ele>529</ele>
        <time>2018-04-27T10:04:29 02:00</time>
      </trkpt>
      <trkpt lat="45.47964" lon="5.48055">
        <ele>529</ele>
        <time>2018-04-27T10:04:34 02:00</time>
      </trkpt>
      <trkpt lat="45.47976" lon="5.48187">
        <ele>535</ele>
        <time>2018-04-27T10:04:39 02:00</time>
      </trkpt>
      <trkpt lat="45.47973" lon="5.48214">
        <ele>535</ele>
        <time>2018-04-27T10:04:44 02:00</time>
      </trkpt>
      <trkpt lat="45.47977" lon="5.48239">
        <ele>533</ele>
        <time>2016-03-01T11:12:05 01:00</time>
      </trkpt>
      <trkpt lat="45.47994" lon="5.48216">
        <ele>530</ele>
        <time>2016-03-01T11:12:36 01:00</time>
      </trkpt>
      <trkpt lat="45.48013" lon="5.48201">
        <ele>522</ele>
        <time>2016-03-01T11:13:30 01:00</time>
      </trkpt>
      <trkpt lat="45.48026" lon="5.48175">
        <ele>516</ele>
        <time>2016-03-01T11:14:50 01:00</time>
      </trkpt>
      <trkpt lat="45.48048" lon="5.48167">
        <ele>504</ele>
        <time>2016-03-01T11:15:59 01:00</time>
      </trkpt>
      <trkpt lat="45.48061" lon="5.48139">
        <ele>495</ele>
        <time>2016-03-01T11:17:19 01:00</time>
      </trkpt>
      <trkpt lat="45.48062" lon="5.48107">
        <ele>492</ele>
        <time>2016-03-01T11:17:44 01:00</time>
      </trkpt>
      <trkpt lat="45.4806" lon="5.48072">
        <ele>491</ele>
        <time>2016-03-01T11:18:48 01:00</time>
      </trkpt>
      <trkpt lat="45.48059" lon="5.48039">
        <ele>489</ele>
        <time>2016-03-01T11:19:03 01:00</time>
      </trkpt>
      <trkpt lat="45.48059" lon="5.48006">
        <ele>487</ele>
        <time>2016-03-01T11:19:22 01:00</time>
      </trkpt>
      <trkpt lat="45.4807" lon="5.47978">
        <ele>479</ele>
        <time>2016-03-01T11:19:45 01:00</time>
      </trkpt>
      <trkpt lat="45.48079" lon="5.47947">
        <ele>473</ele>
        <time>2016-03-01T11:20:03 01:00</time>
      </trkpt>
      <trkpt lat="45.48094" lon="5.47921">
        <ele>470</ele>
        <time>2016-03-01T11:20:22 01:00</time>
      </trkpt>
      <trkpt lat="45.481" lon="5.4789">
        <ele>471</ele>
        <time>2016-03-01T11:20:39 01:00</time>
      </trkpt>
      <trkpt lat="45.48105" lon="5.47858">
        <ele>471</ele>
        <time>2016-03-01T11:20:52 01:00</time>
      </trkpt>
      <trkpt lat="45.48116" lon="5.4783">
        <ele>468</ele>
        <time>2016-03-01T11:21:13 01:00</time>
      </trkpt>
      <trkpt lat="45.48126" lon="5.47799">
        <ele>464</ele>
        <time>2016-03-01T11:21:48 01:00</time>
      </trkpt>
      <trkpt lat="45.48139" lon="5.47769">
        <ele>458</ele>
        <time>2016-03-01T11:22:13 01:00</time>
      </trkpt>
      <trkpt lat="45.48148" lon="5.47739">
        <ele>452</ele>
        <time>2016-03-01T11:22:51 01:00</time>
      </trkpt>
      <trkpt lat="45.48161" lon="5.47722">
        <ele>445</ele>
        <time>2018-04-27T10:06:24 02:00</time>
      </trkpt>
      <trkpt lat="45.48175" lon="5.47717">
        <ele>442</ele>
        <time>2016-03-01T11:23:20 01:00</time>
      </trkpt>
      <trkpt lat="45.48187" lon="5.47704">
        <ele>441</ele>
        <time>2016-03-01T11:23:53 01:00</time>
      </trkpt>
      <trkpt lat="45.48229" lon="5.4766">
        <ele>433</ele>
        <time>2018-04-27T10:06:39 02:00</time>
      </trkpt>
      <trkpt lat="45.48246" lon="5.47676">
        <ele>432</ele>
        <time>2016-03-01T11:26:08 01:00</time>
      </trkpt>
      <trkpt lat="45.48266" lon="5.47685">
        <ele>431</ele>
        <time>2016-03-01T11:26:36 01:00</time>
      </trkpt>
      <trkpt lat="45.48286" lon="5.47707">
        <ele>431</ele>
        <time>2016-03-01T11:26:55 01:00</time>
      </trkpt>
      <trkpt lat="45.48306" lon="5.47727">
        <ele>430</ele>
        <time>2016-03-01T11:27:14 01:00</time>
      </trkpt>
      <trkpt lat="45.48323" lon="5.47741">
        <ele>429</ele>
        <time>2016-03-01T11:27:33 01:00</time>
      </trkpt>
      <trkpt lat="45.48347" lon="5.47755">
        <ele>427</ele>
        <time>2016-03-01T11:27:50 01:00</time>
      </trkpt>
      <trkpt lat="45.48354" lon="5.47757">
        <ele>427</ele>
        <time>2018-04-27T10:07:14 02:00</time>
      </trkpt>
      <trkpt lat="45.4837" lon="5.47746">
        <ele>424</ele>
        <time>2016-03-01T11:28:13 01:00</time>
      </trkpt>
      <trkpt lat="45.48408" lon="5.47712">
        <ele>419</ele>
        <time>2016-03-01T11:28:44 01:00</time>
      </trkpt>
      <trkpt lat="45.48429" lon="5.47695">
        <ele>416</ele>
        <time>2016-03-01T11:29:05 01:00</time>
      </trkpt>
      <trkpt lat="45.48451" lon="5.47679">
        <ele>415</ele>
        <time>2016-03-01T11:29:23 01:00</time>
      </trkpt>
      <trkpt lat="45.48471" lon="5.47663">
        <ele>414</ele>
        <time>2016-03-01T11:29:41 01:00</time>
      </trkpt>
      <trkpt lat="45.48492" lon="5.47645">
        <ele>413</ele>
        <time>2016-03-01T11:30:00 01:00</time>
      </trkpt>
      <trkpt lat="45.4851" lon="5.47631">
        <ele>412</ele>
        <time>2016-03-01T11:30:20 01:00</time>
      </trkpt>
      <trkpt lat="45.48521" lon="5.47629">
        <ele>411</ele>
        <time>2018-04-27T10:07:54 02:00</time>
      </trkpt>
      <trkpt lat="45.48528" lon="5.47614">
        <ele>411</ele>
        <time>2018-04-27T10:07:59 02:00</time>
      </trkpt>
      <trkpt lat="45.48541" lon="5.476">
        <ele>410</ele>
        <time>2016-03-01T11:30:45 01:00</time>
      </trkpt>
      <trkpt lat="45.48504" lon="5.47553">
        <ele>411</ele>
        <time>2016-03-01T11:32:26 01:00</time>
      </trkpt>
      <trkpt lat="45.48485" lon="5.47533">
        <ele>411</ele>
        <time>2016-03-01T11:33:17 01:00</time>
      </trkpt>
      <trkpt lat="45.48466" lon="5.47509">
        <ele>412</ele>
        <time>2016-03-01T11:33:36 01:00</time>
      </trkpt>
      <trkpt lat="45.48455" lon="5.4749">
        <ele>412</ele>
        <time>2016-03-01T11:33:53 01:00</time>
      </trkpt>
      <trkpt lat="45.48431" lon="5.47468">
        <ele>412</ele>
        <time>2016-03-01T11:34:12 01:00</time>
      </trkpt>
      <trkpt lat="45.48416" lon="5.47446">
        <ele>411</ele>
        <time>2016-03-01T11:34:30 01:00</time>
      </trkpt>
      <trkpt lat="45.48399" lon="5.47425">
        <ele>411</ele>
        <time>2016-03-01T11:34:47 01:00</time>
      </trkpt>
    </trkseg>
  </trk>
</gpx>